Time;durP1;ratioP1;P1;durP2;ratioP2;P2;SDS_P1;SDS_P2;PMS_P1;PMS_P2;Temp;Humidity;BMP_temperature;BMP_pressure;BME280_temperature;BME280_humidity;BME280_pressure;Samples;Min_cycle;Max_cycle;Signal;HPM_P1;HPM_P2
2023/12/29 00:02:22;;;;;;;15.30;9.90;;;;;;;5.32;97.34;100442.90;107955;1259;71402;-78
2023/12/29 00:05:01;;;;;;;14.10;8.80;;;;;;;5.35;97.73;100438.58;108081;1254;60832;-78
2023/12/29 00:07:49;;;;;;;13.30;9.20;;;;;;;5.36;97.94;100441.19;108057;1254;60259;-77
2023/12/29 00:10:47;;;;;;;13.70;9.40;;;;;;;5.36;98.20;100439.99;108438;1254;76797;-78
2023/12/29 00:13:41;;;;;;;15.00;9.80;;;;;;;5.39;98.54;100433.85;108013;1255;71687;-77
2023/12/29 00:16:18;;;;;;;14.50;9.20;;;;;;;5.43;98.76;100443.48;108067;1255;72829;-77
2023/12/29 00:19:12;;;;;;;15.10;9.90;;;;;;;5.46;99.16;100438.27;107980;1257;60502;-78
2023/12/29 00:22:11;;;;;;;16.60;9.60;;;;;;;5.47;99.45;100440.10;108027;1254;60313;-78
2023/12/29 00:25:12;;;;;;;14.60;10.70;;;;;;;5.50;99.84;100441.40;108001;1255;73849;-78
2023/12/29 00:27:58;;;;;;;14.00;9.40;;;;;;;5.54;99.97;100441.38;107989;1260;71809;-78
2023/12/29 00:30:56;;;;;;;14.80;10.00;;;;;;;5.58;100.00;100442.83;108115;1253;71467;-78
2023/12/29 00:33:59;;;;;;;14.60;9.90;;;;;;;5.61;100.00;100442.99;108068;1259;60435;-76
2023/12/29 00:36:54;;;;;;;13.50;10.10;;;;;;;5.63;100.00;100437.02;108149;1254;61000;-76
2023/12/29 00:39:50;;;;;;;15.50;9.80;;;;;;;5.69;100.00;100436.35;107899;1254;72699;-77
2023/12/29 00:42:40;;;;;;;14.30;10.00;;;;;;;5.74;100.00;100432.94;108095;1254;72814;-77
2023/12/29 00:45:37;;;;;;;15.00;9.90;;;;;;;5.81;100.00;100432.58;108148;1257;71662;-77
2023/12/29 00:48:35;;;;;;;14.60;10.30;;;;;;;5.88;100.00;100431.80;108109;1256;60476;-77
2023/12/29 00:51:36;;;;;;;13.30;9.30;;;;;;;5.84;100.00;100426.23;108149;1254;60621;-77
2023/12/29 00:54:39;;;;;;;14.00;9.40;;;;;;;5.69;100.00;100417.42;108117;1254;72572;-76
2023/12/29 00:57:40;;;;;;;14.50;9.90;;;;;;;5.86;100.00;100408.95;108072;1254;71727;-78
2023/12/29 01:00:40;;;;;;;13.00;9.30;;;;;;;5.97;100.00;100399.30;108092;1254;72703;-77
2023/12/29 01:03:42;;;;;;;;;;;;;;;6.02;100.00;100397.63;108146;1254;60186;-77
2023/12/29 01:06:34;;;;;;;11.90;8.40;;;;;;;6.05;100.00;100397.16;108197;1254;60328;-76
2023/12/29 01:09:04;;;;;;;14.20;9.10;;;;;;;6.06;100.00;100397.56;108117;1253;72702;-76
2023/12/29 01:11:35;;;;;;;13.80;9.70;;;;;;;6.06;100.00;100396.50;108145;1254;71585;-76
2023/12/29 01:14:08;;;;;;;14.10;8.90;;;;;;;6.08;100.00;100397.23;108254;1254;72766;-77
2023/12/29 01:16:43;;;;;;;16.50;9.60;;;;;;;6.09;100.00;100397.59;108223;1253;60270;-79
2023/12/29 01:19:15;;;;;;;14.70;8.70;;;;;;;6.12;100.00;100392.08;108220;1253;60296;-80
2023/12/29 01:21:45;;;;;;;13.70;9.40;;;;;;;6.16;100.00;100393.27;108274;1254;74008;-77
2023/12/29 01:24:13;;;;;;;14.60;9.50;;;;;;;6.19;100.00;100394.66;108160;1254;72895;-78
2023/12/29 01:26:43;;;;;;;16.80;10.00;;;;;;;6.23;100.00;100390.61;108182;1254;73138;-78
2023/12/29 01:29:11;;;;;;;13.50;9.40;;;;;;;6.27;100.00;100388.21;108211;1254;60434;-78
2023/12/29 01:31:40;;;;;;;13.40;8.90;;;;;;;6.30;100.00;100386.73;108183;1254;60532;-78
2023/12/29 01:34:08;;;;;;;13.20;9.10;;;;;;;6.30;100.00;100383.29;108193;1254;73891;-77
2023/12/29 01:36:37;;;;;;;14.10;9.40;;;;;;;6.27;100.00;100383.76;108221;1254;73699;-77
2023/12/29 01:39:04;;;;;;;14.40;9.40;;;;;;;6.24;100.00;100377.27;108166;1258;72687;-77
2023/12/29 01:41:32;;;;;;;14.40;9.00;;;;;;;6.23;100.00;100370.52;108200;1254;60970;-78
2023/12/29 01:44:04;;;;;;;14.00;9.20;;;;;;;6.22;100.00;100371.60;108164;1253;60014;-78
2023/12/29 01:46:34;;;;;;;15.30;9.40;;;;;;;6.20;100.00;100366.27;108171;1254;73834;-78
2023/12/29 01:49:06;;;;;;;13.90;9.50;;;;;;;6.21;100.00;100363.02;108080;1253;71863;-78
2023/12/29 01:51:36;;;;;;;13.80;10.30;;;;;;;6.21;100.00;100361.66;108116;1259;72819;-78
2023/12/29 01:54:04;;;;;;;14.70;10.00;;;;;;;6.20;100.00;100369.21;107953;1260;59475;-77
2023/12/29 01:56:32;;;;;;;14.90;9.60;;;;;;;6.16;100.00;100375.07;108171;1253;60389;-80
2023/12/29 01:59:00;;;;;;;15.90;9.30;;;;;;;6.13;100.00;100380.59;108197;1254;72553;-77
2023/12/29 02:01:39;;;;;;;14.40;9.80;;;;;;;6.11;100.00;100388.02;108069;1254;71750;-79
2023/12/29 02:04:16;;;;;;;13.20;9.10;;;;;;;6.06;100.00;100384.34;108126;1256;71256;-78
2023/12/29 02:06:45;;;;;;;14.30;9.30;;;;;;;6.04;100.00;100379.80;108173;1256;59501;-78
2023/12/29 02:09:20;;;;;;;14.70;9.40;;;;;;;6.04;100.00;100378.05;108165;1253;60334;-78
2023/12/29 02:11:50;;;;;;;15.60;9.90;;;;;;;6.08;100.00;100382.80;108165;1254;73881;-78
2023/12/29 02:14:19;;;;;;;13.90;9.30;;;;;;;6.12;100.00;100377.95;108176;1254;72746;-77
2023/12/29 02:16:50;;;;;;;12.00;9.10;;;;;;;6.15;100.00;100378.52;108099;1254;72779;-78
2023/12/29 02:19:34;;;;;;;13.40;9.10;;;;;;;6.19;100.00;100371.75;108190;1253;60296;-77
2023/12/29 02:22:02;;;;;;;14.40;9.60;;;;;;;6.24;100.00;100364.75;108130;1254;60201;-77
2023/12/29 02:24:30;;;;;;;15.50;9.50;;;;;;;6.29;100.00;100364.70;108004;1254;73803;-76
2023/12/29 02:27:15;;;;;;;14.80;9.70;;;;;;;6.33;100.00;100361.77;108094;1254;71300;-77
2023/12/29 02:29:47;;;;;;;14.40;9.20;;;;;;;6.36;100.00;100362.14;108155;1256;72706;-77
2023/12/29 02:32:17;;;;;;;14.90;9.20;;;;;;;6.37;100.00;100365.02;107970;1254;60866;-77
2023/12/29 02:34:45;;;;;;;14.00;9.70;;;;;;;6.38;100.00;100361.59;107913;1254;60365;-77
2023/12/29 02:37:13;;;;;;;14.40;9.20;;;;;;;6.40;100.00;100359.77;107835;1254;73866;-78
2023/12/29 02:39:41;;;;;;;13.00;8.90;;;;;;;6.40;100.00;100355.06;108151;1254;70759;-77
2023/12/29 02:42:09;;;;;;;14.90;9.90;;;;;;;6.39;100.00;100357.10;108083;1254;71469;-78
2023/12/29 02:44:38;;;;;;;14.90;10.10;;;;;;;6.35;100.00;100362.60;107823;1254;60345;-76
2023/12/29 02:47:05;;;;;;;14.70;10.10;;;;;;;6.32;100.00;100361.64;108138;1254;60282;-77
2023/12/29 02:49:33;;;;;;;14.70;10.00;;;;;;;6.28;100.00;100365.16;108164;1254;73770;-77
2023/12/29 02:52:01;;;;;;;13.50;9.50;;;;;;;6.25;100.00;100360.38;108040;1254;71459;-77
2023/12/29 02:54:29;;;;;;;14.00;9.70;;;;;;;6.22;100.00;100356.55;108093;1260;72958;-78
2023/12/29 02:56:56;;;;;;;15.30;10.30;;;;;;;6.22;100.00;100361.41;108167;1254;61076;-77
2023/12/29 02:59:24;;;;;;;15.30;9.90;;;;;;;6.22;100.00;100359.57;108171;1254;60252;-78
2023/12/29 03:01:51;;;;;;;14.50;10.10;;;;;;;6.24;100.00;100358.81;108244;1254;73857;-76
2023/12/29 03:04:20;;;;;;;15.70;10.80;;;;;;;6.25;100.00;100358.88;108196;1254;72471;-76
2023/12/29 03:06:48;;;;;;;15.80;10.70;;;;;;;6.26;100.00;100357.17;108064;1257;72514;-77
2023/12/29 03:09:15;;;;;;;16.00;10.40;;;;;;;6.27;100.00;100356.01;108198;1253;60505;-78
2023/12/29 03:11:43;;;;;;;14.10;10.80;;;;;;;6.27;100.00;100354.10;108129;1253;60350;-78
2023/12/29 03:14:11;;;;;;;16.00;10.50;;;;;;;6.27;100.00;100352.23;107859;1259;73812;-77
2023/12/29 03:16:39;;;;;;;16.70;10.40;;;;;;;6.26;100.00;100350.74;108092;1254;71464;-78
2023/12/29 03:19:06;;;;;;;15.60;10.60;;;;;;;6.25;100.00;100350.87;108102;1253;72504;-78
2023/12/29 03:21:34;;;;;;;17.80;10.70;;;;;;;6.21;100.00;100349.31;108205;1253;60271;-77
2023/12/29 03:24:02;;;;;;;14.20;10.20;;;;;;;6.17;100.00;100354.33;108098;1254;60498;-77
2023/12/29 03:26:30;;;;;;;14.30;10.20;;;;;;;6.17;100.00;100356.38;108011;1254;72303;-78
2023/12/29 03:28:57;;;;;;;16.70;10.50;;;;;;;6.17;100.00;100354.67;107978;1254;72919;-78
2023/12/29 03:31:25;;;;;;;14.30;9.90;;;;;;;6.17;100.00;100360.14;107996;1255;72760;-77
2023/12/29 03:33:53;;;;;;;16.40;10.20;;;;;;;6.18;100.00;100361.31;107862;1254;60271;-78
2023/12/29 03:36:21;;;;;;;14.60;10.20;;;;;;;6.19;100.00;100358.38;108087;1254;60411;-78
2023/12/29 03:38:48;;;;;;;15.80;10.20;;;;;;;6.19;100.00;100361.84;108000;1254;73786;-76
2023/12/29 03:41:18;;;;;;;15.50;10.20;;;;;;;6.18;100.00;100358.59;107987;1254;72515;-79
2023/12/29 03:43:47;;;;;;;15.30;10.60;;;;;;;6.18;100.00;100355.80;108001;1254;71447;-79
2023/12/29 03:46:20;;;;;;;14.60;10.00;;;;;;;6.18;100.00;100351.40;108032;1257;60406;-77
2023/12/29 03:48:47;;;;;;;14.60;9.40;;;;;;;6.15;100.00;100359.27;108071;1254;60294;-78
2023/12/29 03:51:15;;;;;;;14.70;10.20;;;;;;;6.13;100.00;100352.37;108055;1253;73088;-75
2023/12/29 03:53:43;;;;;;;15.00;10.20;;;;;;;6.12;100.00;100356.17;108064;1253;72656;-76
2023/12/29 03:56:16;;;;;;;15.20;9.70;;;;;;;6.12;100.00;100351.58;108079;1254;71397;-81
2023/12/29 03:58:47;;;;;;;17.30;10.70;;;;;;;6.10;100.00;100360.78;107960;1260;60899;-77
2023/12/29 04:01:16;;;;;;;14.70;10.20;;;;;;;6.08;100.00;100359.01;107994;1254;60323;-77
2023/12/29 04:03:45;;;;;;;13.70;9.70;;;;;;;6.07;100.00;100362.85;107901;1254;73820;-78
2023/12/29 04:06:13;;;;;;;13.90;9.70;;;;;;;6.09;100.00;100366.29;107860;1254;72516;-76
2023/12/29 04:08:40;;;;;;;14.20;10.00;;;;;;;6.12;100.00;100364.91;108215;1254;72698;-77
2023/12/29 04:11:08;;;;;;;14.70;10.30;;;;;;;6.12;100.00;100367.27;108135;1254;60385;-77
2023/12/29 04:13:37;;;;;;;13.50;10.00;;;;;;;6.14;100.00;100371.80;108204;1259;59975;-77
2023/12/29 04:16:05;;;;;;;15.40;10.20;;;;;;;6.18;100.00;100367.16;108138;1254;72601;-78
2023/12/29 04:18:33;;;;;;;15.90;10.10;;;;;;;6.20;100.00;100363.24;108145;1259;72638;-76
2023/12/29 04:21:01;;;;;;;13.50;9.90;;;;;;;6.21;100.00;100362.60;107885;1257;72683;-76
2023/12/29 04:23:29;;;;;;;15.10;10.10;;;;;;;6.21;100.00;100358.73;107812;1260;60503;-76
2023/12/29 04:25:58;;;;;;;15.60;10.30;;;;;;;6.21;100.00;100353.96;107994;1254;60441;-77
2023/12/29 04:28:27;;;;;;;15.40;10.40;;;;;;;6.21;100.00;100362.94;107854;1254;72566;-77
2023/12/29 04:30:55;;;;;;;14.10;10.00;;;;;;;6.19;100.00;100363.11;107945;1254;71983;-77
2023/12/29 04:33:23;;;;;;;14.00;10.30;;;;;;;6.18;100.00;100364.57;108102;1256;71398;-77
2023/12/29 04:35:51;;;;;;;16.00;10.50;;;;;;;6.18;100.00;100365.52;108001;1256;60417;-78
2023/12/29 04:38:19;;;;;;;14.10;9.90;;;;;;;6.18;100.00;100365.56;108022;1260;60336;-76
2023/12/29 04:40:47;;;;;;;13.60;9.50;;;;;;;6.19;100.00;100370.11;108125;1253;72886;-76
2023/12/29 04:43:15;;;;;;;16.30;10.30;;;;;;;6.17;100.00;100361.14;108127;1253;72704;-75
2023/12/29 04:45:42;;;;;;;14.30;9.80;;;;;;;6.09;100.00;100356.54;108100;1256;71890;-77
2023/12/29 04:48:12;;;;;;;14.10;10.10;;;;;;;6.00;100.00;100353.00;108160;1256;61668;-77
2023/12/29 04:50:39;;;;;;;15.30;10.90;;;;;;;5.92;100.00;100356.72;108175;1253;60291;-76
2023/12/29 04:53:08;;;;;;;14.40;10.50;;;;;;;5.82;100.00;100352.55;108088;1254;73006;-77
2023/12/29 04:55:36;;;;;;;17.70;11.50;;;;;;;5.71;100.00;100352.08;107996;1254;72861;-77
2023/12/29 04:58:03;;;;;;;16.40;10.50;;;;;;;5.59;100.00;100364.64;108140;1259;72417;-77
2023/12/29 05:00:31;;;;;;;17.00;11.10;;;;;;;5.43;100.00;100373.08;108070;1253;60810;-77
2023/12/29 05:03:00;;;;;;;15.40;11.10;;;;;;;5.25;100.00;100377.13;108112;1253;60755;-80
2023/12/29 05:05:28;;;;;;;16.60;10.60;;;;;;;5.11;100.00;100374.92;108116;1259;73803;-81
2023/12/29 05:07:56;;;;;;;17.20;10.90;;;;;;;5.00;100.00;100372.46;108127;1253;71406;-79
2023/12/29 05:10:23;;;;;;;16.30;11.40;;;;;;;4.92;100.00;100377.13;108106;1253;72438;-78
2023/12/29 05:12:51;;;;;;;13.90;9.90;;;;;;;4.84;100.00;100382.48;108176;1253;60162;-78
2023/12/29 05:15:19;;;;;;;15.30;10.90;;;;;;;4.76;100.00;100379.98;108157;1253;59712;-78
2023/12/29 05:17:47;;;;;;;15.90;10.90;;;;;;;4.69;100.00;100379.27;108098;1254;73919;-78
2023/12/29 05:20:15;;;;;;;14.50;10.10;;;;;;;4.62;100.00;100380.13;108132;1254;72774;-78
2023/12/29 05:22:44;;;;;;;17.20;11.20;;;;;;;4.56;100.00;100375.02;108160;1254;71933;-78
2023/12/29 05:25:26;;;;;;;18.60;11.60;;;;;;;4.47;100.00;100375.66;108260;1254;60525;-78
2023/12/29 05:28:14;;;;;;;15.80;11.10;;;;;;;4.39;100.00;100382.41;107950;1253;60609;-77
2023/12/29 05:30:42;;;;;;;16.70;11.30;;;;;;;4.35;100.00;100384.20;108151;1253;73132;-78
2023/12/29 05:33:09;;;;;;;17.90;11.50;;;;;;;4.32;100.00;100384.23;108129;1253;71384;-79
2023/12/29 05:35:37;;;;;;;17.50;11.30;;;;;;;4.28;100.00;100382.00;108330;1253;72455;-76
2023/12/29 05:38:05;;;;;;;16.50;11.00;;;;;;;4.22;100.00;100382.52;107977;1256;60323;-77
2023/12/29 05:40:32;;;;;;;17.20;11.10;;;;;;;4.17;100.00;100380.24;108091;1253;60202;-78
2023/12/29 05:43:00;;;;;;;17.40;11.50;;;;;;;4.15;100.00;100383.04;108119;1254;73869;-78
2023/12/29 05:45:27;;;;;;;17.70;11.50;;;;;;;4.12;100.00;100379.84;108048;1253;71486;-78
2023/12/29 05:47:55;;;;;;;15.70;10.90;;;;;;;4.09;100.00;100381.05;108194;1254;71612;-76
2023/12/29 05:50:23;;;;;;;17.20;11.80;;;;;;;4.07;100.00;100390.30;108026;1255;59568;-77
2023/12/29 05:52:51;;;;;;;16.70;11.50;;;;;;;4.05;100.00;100389.63;108078;1253;60346;-77
2023/12/29 05:55:19;;;;;;;15.50;11.30;;;;;;;4.02;100.00;100383.66;107936;1259;73921;-77
2023/12/29 05:57:48;;;;;;;16.80;11.90;;;;;;;4.00;100.00;100380.33;107939;1254;70720;-77
2023/12/29 06:00:17;;;;;;;17.40;11.90;;;;;;;3.97;100.00;100382.92;107946;1254;72815;-78
2023/12/29 06:02:45;;;;;;;17.20;11.70;;;;;;;3.92;100.00;100388.52;108100;1256;60402;-77
2023/12/29 06:05:13;;;;;;;20.40;12.50;;;;;;;3.88;100.00;100392.19;107951;1254;60147;-77
2023/12/29 06:18:39;;;;;;;18.00;12.50;;;;;;;4.00;100.00;100405.10;106065;1278;613983;-69
2023/12/29 06:21:06;;;;;;;17.10;11.60;;;;;;;4.00;100.00;100409.97;107240;1267;136046;-68
2023/12/29 06:23:33;;;;;;;17.30;12.20;;;;;;;3.96;100.00;100407.36;107419;1269;59843;-69
2023/12/29 06:26:00;;;;;;;20.00;12.90;;;;;;;3.93;100.00;100403.48;107419;1266;72207;-69
2023/12/29 06:28:28;;;;;;;19.80;12.50;;;;;;;3.92;100.00;100399.67;107355;1267;73537;-70
2023/12/29 06:30:55;;;;;;;18.70;12.00;;;;;;;3.92;100.00;100400.36;107393;1266;71366;-69
2023/12/29 06:33:22;;;;;;;19.30;13.10;;;;;;;3.93;100.00;100402.19;107364;1267;60896;-70
2023/12/29 06:35:50;;;;;;;17.70;12.70;;;;;;;3.94;100.00;100406.31;107405;1269;59359;-69
2023/12/29 06:38:16;;;;;;;17.70;12.20;;;;;;;3.97;100.00;100410.92;107418;1267;71893;-70
2023/12/29 06:40:43;;;;;;;20.60;12.70;;;;;;;3.99;100.00;100407.05;107856;1261;70858;-70
2023/12/29 06:43:10;;;;;;;19.50;12.80;;;;;;;4.01;100.00;100407.02;107818;1260;73157;-70
2023/12/29 06:45:37;;;;;;;18.00;12.80;;;;;;;3.99;100.00;100406.91;107754;1260;61349;-68
2023/12/29 06:48:05;;;;;;;21.60;14.10;;;;;;;4.02;100.00;100400.56;107686;1260;60074;-69
2023/12/29 06:50:32;;;;;;;20.70;13.70;;;;;;;4.05;100.00;100396.53;107850;1258;72979;-68
2023/12/29 06:52:59;;;;;;;20.90;13.90;;;;;;;4.10;100.00;100391.62;107872;1261;72651;-69
2023/12/29 06:55:26;;;;;;;21.40;14.30;;;;;;;4.15;100.00;100383.19;107820;1260;71410;-68
2023/12/29 06:57:53;;;;;;;22.30;14.60;;;;;;;4.19;100.00;100378.55;107804;1259;59635;-69
2023/12/29 07:00:20;;;;;;;22.10;14.10;;;;;;;4.24;100.00;100377.28;107827;1259;60225;-69
2023/12/29 07:02:47;;;;;;;22.50;14.80;;;;;;;4.26;100.00;100378.40;107831;1257;73072;-70
2023/12/29 07:05:14;;;;;;;23.40;14.70;;;;;;;4.29;100.00;100379.48;107901;1259;73323;-70
2023/12/29 07:07:41;;;;;;;22.30;14.50;;;;;;;4.31;100.00;100373.80;107716;1260;71216;-72
2023/12/29 07:10:08;;;;;;;20.00;13.80;;;;;;;4.35;100.00;100371.15;107776;1259;59580;-70
2023/12/29 07:12:35;;;;;;;22.90;14.70;;;;;;;4.39;100.00;100368.45;107727;1259;59807;-70
2023/12/29 07:15:02;;;;;;;21.50;14.20;;;;;;;4.42;100.00;100370.05;107788;1260;73049;-69
2023/12/29 07:17:29;;;;;;;20.30;13.30;;;;;;;4.53;100.00;100378.68;107781;1260;71964;-69
2023/12/29 07:19:56;;;;;;;18.70;13.10;;;;;;;4.60;100.00;100373.55;107811;1260;71095;-69
2023/12/29 07:22:23;;;;;;;19.70;12.30;;;;;;;4.69;100.00;100365.88;107809;1260;59778;-69
2023/12/29 07:24:50;;;;;;;19.30;13.00;;;;;;;4.79;100.00;100371.11;107836;1259;60396;-69
2023/12/29 07:27:16;;;;;;;19.40;13.50;;;;;;;4.88;100.00;100371.04;107817;1259;73620;-69
2023/12/29 07:29:43;;;;;;;20.30;14.10;;;;;;;4.97;100.00;100372.27;107877;1258;73330;-69
2023/12/29 07:32:10;;;;;;;20.00;14.10;;;;;;;5.05;100.00;100375.30;107844;1260;73009;-70
2023/12/29 07:34:37;;;;;;;19.80;13.60;;;;;;;5.13;100.00;100379.33;107823;1260;61254;-70
2023/12/29 07:37:05;;;;;;;19.20;12.60;;;;;;;5.22;100.00;100378.11;107833;1259;60241;-71
2023/12/29 07:39:32;;;;;;;18.30;13.30;;;;;;;5.27;100.00;100383.88;107844;1260;70598;-70
2023/12/29 07:41:58;;;;;;;19.10;13.10;;;;;;;5.31;100.00;100389.10;107866;1258;73354;-70
2023/12/29 07:44:26;;;;;;;18.10;12.20;;;;;;;5.37;100.00;100387.02;107877;1259;72623;-71
2023/12/29 07:46:53;;;;;;;20.00;12.70;;;;;;;5.45;100.00;100376.27;107884;1260;61028;-70
2023/12/29 07:49:21;;;;;;;17.10;12.40;;;;;;;5.54;100.00;100374.45;107850;1260;60354;-70
2023/12/29 07:51:48;;;;;;;18.80;13.50;;;;;;;5.60;100.00;100371.39;107833;1259;71116;-71
2023/12/29 07:54:15;;;;;;;17.20;11.80;;;;;;;5.69;100.00;100360.36;107849;1260;73207;-70
2023/12/29 07:56:43;;;;;;;18.70;12.20;;;;;;;5.80;100.00;100360.83;107854;1260;71749;-70
2023/12/29 07:59:09;;;;;;;16.40;11.50;;;;;;;5.89;100.00;100367.35;107826;1260;60459;-69
2023/12/29 08:01:38;;;;;;;18.80;12.20;;;;;;;5.98;100.00;100361.80;107775;1259;60048;-70
2023/12/29 08:04:06;;;;;;;17.50;12.10;;;;;;;6.07;100.00;100359.55;107804;1260;73034;-71
2023/12/29 08:06:34;;;;;;;17.60;11.90;;;;;;;6.14;100.00;100354.02;107852;1261;73116;-70
2023/12/29 08:09:01;;;;;;;15.00;11.90;;;;;;;6.19;100.00;100353.34;107695;1260;73269;-68
2023/12/29 08:11:28;;;;;;;17.10;11.60;;;;;;;6.22;100.00;100365.93;107693;1259;61022;-70
2023/12/29 08:13:55;;;;;;;14.60;10.70;;;;;;;6.26;100.00;100367.23;107717;1259;60672;-70
2023/12/29 08:16:22;;;;;;;15.90;11.70;;;;;;;6.30;100.00;100366.88;107735;1258;73339;-69
2023/12/29 08:18:49;;;;;;;15.20;11.10;;;;;;;6.35;100.00;100366.89;107718;1259;71244;-70
2023/12/29 08:21:18;;;;;;;14.40;10.60;;;;;;;6.39;100.00;100373.13;107756;1262;72364;-69
2023/12/29 08:23:48;;;;;;;16.50;10.90;;;;;;;6.43;100.00;100367.59;107739;1260;61660;-69
2023/12/29 08:26:15;;;;;;;15.90;11.00;;;;;;;6.46;100.00;100366.48;107714;1259;60334;-69
2023/12/29 08:28:42;;;;;;;13.50;9.30;;;;;;;6.49;100.00;100372.13;107648;1260;73030;-70
2023/12/29 08:31:10;;;;;;;14.80;10.10;;;;;;;6.53;100.00;100370.55;107722;1259;72497;-70
2023/12/29 08:33:37;;;;;;;15.40;10.50;;;;;;;6.55;100.00;100368.52;107753;1259;71507;-72
2023/12/29 08:36:06;;;;;;;15.50;10.40;;;;;;;6.59;100.00;100366.20;107720;1260;62262;-72
2023/12/29 08:38:33;;;;;;;15.60;10.60;;;;;;;6.64;100.00;100368.11;107721;1259;60308;-70
2023/12/29 08:41:00;;;;;;;15.50;11.20;;;;;;;6.66;100.00;100362.95;107762;1259;73656;-69
2023/12/29 08:43:27;;;;;;;13.70;10.20;;;;;;;6.70;100.00;100364.52;107717;1259;72681;-69
2023/12/29 08:45:54;;;;;;;13.00;9.50;;;;;;;6.74;100.00;100357.80;107709;1259;70973;-69
2023/12/29 08:48:22;;;;;;;14.10;9.90;;;;;;;6.83;100.00;100359.35;107725;1259;63165;-69
2023/12/29 08:50:49;;;;;;;13.10;9.80;;;;;;;6.93;100.00;100359.25;107771;1260;59746;-69
2023/12/29 08:53:17;;;;;;;15.20;10.40;;;;;;;7.03;100.00;100361.73;107730;1259;72394;-71
2023/12/29 08:55:44;;;;;;;14.70;9.90;;;;;;;7.15;100.00;100359.55;107717;1260;72167;-69
2023/12/29 08:58:12;;;;;;;14.60;10.80;;;;;;;7.23;100.00;100358.95;107678;1259;73353;-71
2023/12/29 09:00:39;;;;;;;16.10;9.90;;;;;;;7.28;100.00;100354.46;107788;1258;61858;-68
2023/12/29 09:03:07;;;;;;;14.70;9.90;;;;;;;7.36;99.89;100350.36;107730;1259;60154;-70
2023/12/29 09:05:34;;;;;;;13.70;9.90;;;;;;;7.45;99.12;100348.11;107743;1260;70854;-69
2023/12/29 09:08:01;;;;;;;14.50;9.80;;;;;;;7.50;97.77;100343.20;107793;1259;72653;-70
2023/12/29 09:10:28;;;;;;;13.70;9.90;;;;;;;7.55;96.65;100343.00;107781;1260;72855;-69
2023/12/29 09:12:55;;;;;;;14.20;9.60;;;;;;;7.58;95.58;100341.63;107737;1260;60588;-70
2023/12/29 09:15:23;;;;;;;13.00;9.20;;;;;;;7.56;94.90;100347.33;107867;1258;61328;-69
2023/12/29 09:17:50;;;;;;;14.40;9.40;;;;;;;7.57;94.35;100343.14;107757;1260;71838;-70
2023/12/29 09:20:17;;;;;;;13.90;8.90;;;;;;;7.58;93.88;100339.40;107739;1260;73117;-70
2023/12/29 09:22:44;;;;;;;14.80;9.60;;;;;;;7.64;93.38;100336.66;107735;1259;71477;-69
2023/12/29 09:25:11;;;;;;;12.00;8.60;;;;;;;7.69;92.57;100334.02;107752;1259;61906;-70
2023/12/29 09:27:38;;;;;;;13.90;9.20;;;;;;;7.72;91.96;100334.61;107671;1260;60286;-70
2023/12/29 09:43:40;;;;;;;11.40;8.40;;;;;;;8.06;89.96;100328.16;105668;1283;612911;-77
2023/12/29 09:46:08;;;;;;;10.90;8.30;;;;;;;8.42;85.75;100323.82;107219;1272;140870;-76
2023/12/29 09:48:36;;;;;;;13.20;8.70;;;;;;;8.44;85.05;100324.96;107395;1267;59831;-76
2023/12/29 09:51:07;;;;;;;10.90;7.70;;;;;;;8.46;84.04;100326.48;107275;1270;71040;-76
2023/12/29 09:53:35;;;;;;;11.60;8.20;;;;;;;8.46;83.29;100325.98;107217;1267;73179;-77
2023/12/29 09:56:03;;;;;;;11.70;8.30;;;;;;;8.47;82.94;100330.48;107112;1274;72908;-76
2023/12/29 09:58:31;;;;;;;11.40;8.00;;;;;;;8.51;82.82;100325.73;107222;1267;60555;-76
2023/12/29 10:00:58;;;;;;;11.20;7.70;;;;;;;8.55;82.21;100323.22;92262;1269;20001768;-76
2023/12/29 10:03:26;;;;;;;11.70;8.00;;;;;;;8.55;81.31;100318.84;99637;1266;10002272;-74
2023/12/29 10:05:54;;;;;;;11.30;7.40;;;;;;;8.54;80.91;100323.58;107295;1263;59268;-74
2023/12/29 10:08:22;;;;;;;12.40;7.60;;;;;;;8.54;80.74;100326.24;108201;1263;70784;-76
2023/12/29 10:10:50;;;;;;;12.90;8.50;;;;;;;8.57;80.73;100323.20;107656;1265;59742;-77
2023/12/29 10:13:18;;;;;;;14.40;8.50;;;;;;;8.61;80.26;100316.73;108475;1259;59477;-76
2023/12/29 10:16:10;;;;;;;11.00;8.50;;;;;;;8.63;79.82;100315.76;108796;1260;72907;-75
2023/12/29 10:19:02;;;;;;;12.10;7.60;;;;;;;8.64;79.24;100309.06;107730;1257;71667;-77
2023/12/29 10:21:31;;;;;;;;;;;;;;;8.62;78.88;100297.21;107822;1261;72569;-76
2023/12/29 10:24:11;;;;;;;12.50;8.60;;;;;;;8.60;79.09;100289.95;107751;1257;59901;-76
2023/12/29 10:26:40;;;;;;;13.10;8.40;;;;;;;8.61;79.23;100289.58;107676;1260;60540;-75
2023/12/29 10:29:07;;;;;;;15.40;9.00;;;;;;;8.61;79.06;100298.58;107611;1257;73188;-76
2023/12/29 10:31:35;;;;;;;12.00;7.70;;;;;;;8.62;79.03;100293.49;107736;1257;72489;-76
2023/12/29 10:34:31;;;;;;;12.10;8.10;;;;;;;8.65;78.98;100295.33;107743;1260;71438;-76
2023/12/29 10:37:01;;;;;;;11.90;8.60;;;;;;;8.68;78.87;100299.66;107655;1257;60264;-77
2023/12/29 10:39:29;;;;;;;13.40;9.10;;;;;;;8.68;78.88;100289.92;107657;1262;58748;-75
2023/12/29 10:42:07;;;;;;;12.20;8.50;;;;;;;8.72;78.67;100290.02;107714;1257;71912;-77
2023/12/29 10:44:36;;;;;;;11.90;8.30;;;;;;;8.73;78.52;100283.75;107800;1257;71439;-77
2023/12/29 10:47:09;;;;;;;10.80;7.70;;;;;;;8.75;78.32;100287.70;107678;1263;71553;-76
2023/12/29 10:49:40;;;;;;;13.20;8.70;;;;;;;8.78;78.34;100288.22;107689;1261;59905;-77
2023/12/29 10:52:15;;;;;;;12.80;8.60;;;;;;;8.82;78.13;100283.63;107714;1258;59486;-78
2023/12/29 10:54:43;;;;;;;12.00;7.60;;;;;;;8.86;78.06;100273.42;107777;1262;71755;-77
2023/12/29 10:57:12;;;;;;;10.70;7.80;;;;;;;8.93;78.07;100274.67;107675;1257;71550;-76
2023/12/29 10:59:39;;;;;;;12.10;7.60;;;;;;;8.98;77.57;100275.29;107795;1260;72669;-79
2023/12/29 11:02:14;;;;;;;11.50;7.90;;;;;;;9.04;77.41;100273.98;108036;1257;62273;-78
2023/12/29 11:04:42;;;;;;;11.20;8.10;;;;;;;9.08;76.80;100269.15;107538;1259;60068;-77
2023/12/29 11:07:12;;;;;;;9.80;6.80;;;;;;;9.11;76.76;100268.86;107722;1260;73166;-76
2023/12/29 11:09:39;;;;;;;13.40;8.60;;;;;;;9.14;76.49;100267.83;107517;1257;71209;-78
2023/12/29 11:12:07;;;;;;;11.50;8.20;;;;;;;9.20;76.30;100265.03;107495;1263;72740;-77
2023/12/29 11:14:35;;;;;;;12.90;8.40;;;;;;;9.24;76.00;100262.83;107683;1261;59695;-77
2023/12/29 11:17:04;;;;;;;10.60;8.10;;;;;;;9.27;75.43;100265.66;107485;1263;59464;-78
2023/12/29 11:19:31;;;;;;;11.60;7.70;;;;;;;9.26;75.08;100263.33;107711;1257;71963;-76
2023/12/29 11:21:59;;;;;;;11.40;7.70;;;;;;;9.23;74.96;100265.38;107780;1257;71648;-78
2023/12/29 11:24:28;;;;;;;15.00;9.10;;;;;;;9.23;75.13;100266.49;107571;1263;70407;-76
2023/12/29 11:27:06;;;;;;;13.70;8.60;;;;;;;9.23;75.10;100262.50;107732;1261;62281;-77
2023/12/29 11:29:35;;;;;;;12.10;8.40;;;;;;;9.23;75.05;100257.17;107736;1262;60051;-76
2023/12/29 11:32:03;;;;;;;12.40;8.90;;;;;;;9.20;75.03;100259.23;107777;1263;73020;-76
2023/12/29 11:34:39;;;;;;;15.70;8.30;;;;;;;9.19;75.19;100256.39;107606;1257;72832;-76
2023/12/29 11:37:25;;;;;;;11.70;7.90;;;;;;;9.17;75.13;100256.11;107954;1258;71468;-76
2023/12/29 11:40:01;;;;;;;10.80;7.60;;;;;;;9.16;75.32;100254.63;107768;1260;60137;-79
2023/12/29 11:42:34;;;;;;;9.80;7.40;;;;;;;9.16;75.50;100247.38;107687;1263;59481;-78
2023/12/29 11:45:35;;;;;;;11.20;8.00;;;;;;;9.15;75.35;100243.41;107708;1258;73140;-78
2023/12/29 11:48:04;;;;;;;11.70;7.70;;;;;;;9.13;75.53;100244.78;107882;1260;71581;-77
2023/12/29 11:50:42;;;;;;;10.00;7.40;;;;;;;9.11;75.79;100241.05;107950;1260;71979;-78